METAR Data
IDs: Format: Raw Decoded Include TAF

Data at: 0433 UTC 26 Sep 2018

KSNH 260415Z AUTO VRB04KT 10SM FEW036 SCT050 BKN065 25/23 A3005 RMK A01
KSNH 260355Z AUTO 21005KT 10SM FEW036 SCT050 BKN075 25/23 A3005 RMK A01
KSNH 260335Z AUTO 19005KT 10SM FEW028 SCT049 BKN080 25/23 A3005 RMK A01
KSNH 260315Z AUTO 14003KT 10SM FEW048 SCT070 OVC080 24/23 A3005 RMK A01
KSNH 260255Z AUTO 00000KT 10SM OVC080 24/23 A3005 RMK A01
KSNH 260235Z AUTO 16004KT 10SM OVC090 24/23 A3004 RMK A01
KSNH 260215Z AUTO 15004KT 10SM BKN095 24/23 A3003 RMK A01
KSNH 260155Z AUTO 17005KT 10SM FEW095 24/23 A3003 RMK A01
KSNH 260135Z AUTO 17004KT 10SM CLR 24/23 A3002 RMK A01
KSNH 260115Z AUTO 16003KT 10SM CLR 23/23 A3000 RMK A01
KSNH 260055Z AUTO 15003KT 10SM CLR 24/23 A3000 RMK A01
KSNH 260035Z AUTO 00000KT 10SM CLR 24/23 A2999 RMK A01
KSNH 260015Z AUTO 17003KT 10SM CLR 24/23 A2998 RMK A01
KSNH 252355Z AUTO 00000KT 10SM CLR 25/23 A2998 RMK A01
KSNH 252335Z AUTO 17004KT 10SM CLR 25/23 A2998 RMK A01
KSNH 252315Z AUTO 18005KT 10SM CLR 26/23 A2998 RMK A01
KSNH 252255Z AUTO 17008KT 10SM CLR 27/23 A2998 RMK A01
KSNH 252235Z AUTO VRB06KT 10SM CLR 27/23 A2998 RMK A01
KSNH 252215Z AUTO 17006KT 10SM CLR 27/23 A2998 RMK A01
KSNH 252155Z AUTO 16006KT 10SM CLR 27/23 A2998 RMK A01
KSNH 252135Z AUTO 16006KT 10SM CLR 27/24 A2998 RMK A01
KSNH 252115Z AUTO 19007KT 10SM CLR 27/23 A2999 RMK A01
KSNH 252055Z AUTO 18007G12KT 10SM SCT090 27/23 A3000 RMK A01
KSNH 252035Z AUTO 17007KT 10SM FEW060 BKN090 27/23 A3000 RMK A01
KSNH 252015Z AUTO 19010KT 10SM FEW048 SCT060 BKN090 26/23 A3001 RMK A01
KSNH 251955Z AUTO 21007KT 10SM SCT048 SCT065 25/23 A3001 RMK A01 P0026
KSNH 251935Z AUTO 20009KT 10SM FEW060 25/23 A3001 RMK A01
KSNH 251915Z AUTO 20007KT 2 1/2SM BR FEW003 FEW010 SCT016 24/24 A3002 RMK A01 VIS 1 1/2V5
KSNH 251855Z AUTO 20006KT 1 3/4SM BR 24/24 A3003 RMK A01 P0007
KSNH 251835Z AUTO 19005KT 2 1/2SM BR FEW013 SCT028 BKN050 25/24 A3003 RMK A01 VIS 1 1/2V4
KSNH 251815Z AUTO 19008KT 10SM FEW020 SCT055 BKN070 26/24 A3004 RMK A01
KSNH 251755Z AUTO 18006KT 10SM FEW021 BKN075 OVC085 25/23 A3005 RMK A01
KSNH 251735Z AUTO 19007G13KT 10SM SCT016 BKN033 OVC070 25/23 A3005 RMK A01
KSNH 251715Z AUTO 19006KT 10SM BKN016 OVC020 25/23 A3006 RMK A01
KSNH 251655Z AUTO 20008KT 10SM OVC019 26/23 A3005 RMK A01
KSNH 251635Z AUTO 20010G15KT 10SM BKN016 OVC021 26/23 A3005 RMK A01
KSNH 251615Z AUTO 19011KT 10SM OVC014 26/23 A3005 RMK A01
KSNH 251555Z AUTO 18009KT 10SM BKN013 OVC019 26/23 A3004 RMK A01
KSNH 251535Z AUTO 18008KT 10SM OVC012 25/23 A3005 RMK A01
KSNH 251515Z AUTO 18007G14KT 10SM OVC012 25/23 A3006 RMK A01
KSNH 251455Z AUTO 18010KT 10SM OVC012 25/23 A3005 RMK A01
KSNH 251435Z AUTO 19009KT 10SM BKN009 OVC013 25/23 A3005 RMK A01
KSNH 251415Z AUTO 18009KT 10SM BKN009 OVC013 24/23 A3005 RMK A01
KSNH 251355Z AUTO 18009G14KT 10SM BKN008 OVC013 24/23 A3005 RMK A01
KSNH 251335Z AUTO 19006G15KT 8SM BKN009 OVC012 24/23 A3005 RMK A01
KSNH 251315Z AUTO VRB05KT 10SM BKN009 OVC012 24/23 A3005 RMK A01
KSNH 251255Z AUTO 18006G12KT 10SM OVC009 24/23 A3005 RMK A01
KSNH 251235Z AUTO 17005G11KT 10SM OVC009 24/23 A3004 RMK A01
KSNH 251215Z AUTO VRB06KT 10SM BKN008 OVC011 23/22 A3004 RMK A01
KSNH 251155Z AUTO 17006G11KT 10SM BKN008 OVC012 23/22 A3004 RMK A01
KSNH 251135Z AUTO 17008KT 10SM BKN008 OVC012 23/22 A3003 RMK A01
KSNH 251115Z AUTO VRB06G11KT 10SM BKN008 OVC013 23/22 A3003 RMK A01
KSNH 251055Z AUTO 18005KT 4SM BR OVC006 23/22 A3003 RMK A01
KSNH 251035Z AUTO 19008KT 4SM BR BKN007 OVC010 23/22 A3003 RMK A01
KSNH 251015Z AUTO 18009KT 9SM BKN008 OVC012 23/22 A3002 RMK A01
KSNH 250955Z AUTO 19010G15KT 10SM OVC008 23/22 A3002 RMK A01
KSNH 250935Z AUTO 16007G12KT 10SM OVC009 23/22 A3001 RMK A01
KSNH 250915Z AUTO 18007KT 10SM OVC009 23/22 A3002 RMK A01
KSNH 250855Z AUTO 18008KT 10SM OVC009 23/22 A3002 RMK A01
KSNH 250835Z AUTO 16006KT 10SM OVC010 23/22 A3002 RMK A01
KSNH 250815Z AUTO 17006KT 10SM OVC010 23/22 A3002 RMK A01
KSNH 250755Z AUTO VRB05KT 10SM OVC010 23/22 A3002 RMK A01
KSNH 250735Z AUTO VRB06KT 10SM BKN010 OVC014 23/22 A3002 RMK A01
KSNH 250715Z AUTO 15005KT 10SM OVC012 23/22 A3003 RMK A01
KSNH 250655Z AUTO 16007KT 10SM BKN014 OVC018 23/22 A3003 RMK A01
KSNH 250635Z AUTO 16005KT 10SM BKN016 BKN020 23/22 A3002 RMK A01
KSNH 250615Z AUTO 16006KT 10SM SCT019 23/22 A3002 RMK A01
KSNH 250555Z AUTO 16007KT 10SM CLR 23/22 A3001 RMK A01
KSNH 250535Z AUTO 16006KT 10SM CLR 23/22 A3001 RMK A01
KSNH 250515Z AUTO 16006KT 10SM CLR 23/22 A3001 RMK A01
KSNH 250455Z AUTO 16005KT 10SM CLR 23/22 A3000 RMK A01
KSNH 250435Z AUTO 15004KT 10SM CLR 23/22 A3001 RMK A01
KSNH 250415Z AUTO 15004KT 10SM CLR 23/22 A3001 RMK A01
KSNH 250355Z AUTO 17003KT 10SM CLR 23/22 A3000 RMK A01
KSNH 250335Z AUTO 17004KT 10SM CLR 23/22 A3000 RMK A01
KSNH 250315Z AUTO 17004KT 10SM SCT055 23/22 A2999 RMK A01
KSNH 250255Z AUTO 16003KT 10SM FEW039 BKN055 23/22 A2999 RMK A01
KSNH 250235Z AUTO 14004KT 10SM FEW024 SCT031 SCT039 23/22 A2999 RMK A01
KSNH 250215Z AUTO 16004KT 10SM BKN028 BKN070 BKN100 23/22 A2999 RMK A01
KSNH 250155Z AUTO 18003KT 10SM FEW029 SCT070 BKN100 23/22 A2999 RMK A01 P0001
KSNH 250135Z AUTO 16004KT 10SM 23/22 A2998 RMK A01
KSNH 250115Z AUTO 00000KT 10SM FEW043 BKN065 OVC100 23/22 A2997 RMK A01
KSNH 250055Z AUTO 18007KT 10SM FEW004 SCT049 BKN070 23/22 A2997 RMK A01 P0011
KSNH 250035Z AUTO 17009G24KT 1 3/4SM BR SCT003 BKN011 OVC048 23/22 A2997 RMK A01 VIS 3/4V3
KSNH 250015Z AUTO 17005KT 10SM SCT048 SCT060 BKN090 25/23 A2997 RMK A01
KSNH 242355Z AUTO 00000KT 10SM FEW065 FEW070 BKN095 25/23 A2996 RMK A01
KSNH 242335Z AUTO 14003KT 10SM FEW065 BKN070 BKN090 25/24 A2997 RMK A01
KSNH 242315Z AUTO 00000KT 10SM BKN075 BKN090 25/23 A2997 RMK A01
KSNH 242255Z AUTO 00000KT 10SM BKN075 26/23 A2996 RMK A01
KSNH 242235Z AUTO 16004KT 10SM FEW070 26/23 A2996 RMK A01
KSNH 242215Z AUTO 16004KT 10SM CLR 26/22 A2995 RMK A01
KSNH 242155Z AUTO 00000KT 10SM CLR 27/22 A2995 RMK A01
KSNH 242135Z AUTO 15004KT 10SM CLR 27/23 A2996 RMK A01
KSNH 242115Z AUTO VRB06KT 10SM CLR 28/23 A2996 RMK A01
KSNH 242055Z AUTO 16006KT 10SM CLR 27/23 A2996 RMK A01
KSNH 242035Z AUTO 16007KT 10SM FEW017 26/23 A2996 RMK A01
KSNH 242015Z AUTO 16007KT 10SM FEW015 26/23 A2997 RMK A01
KSNH 241955Z AUTO 16005G11KT 10SM FEW014 26/23 A2997 RMK A01 P0001
KSNH 241935Z AUTO VRB05KT 10SM CLR 26/24 A2997 RMK A01
KSNH 241915Z AUTO 19005KT 8SM FEW014 26/24 A2998 RMK A01
KSNH 241855Z AUTO 19006G12KT 8SM SCT015 SCT019 26/24 A2998 RMK A01
KSNH 241835Z AUTO 19008KT 150V210 10SM SCT013 BKN019 BKN031 26/24 A2999 RMK A01
KSNH 241815Z AUTO 19007KT 10SM BKN013 27/24 A3000 RMK A01
KSNH 241755Z AUTO 20005KT 10SM SCT014 BKN020 26/24 A3001 RMK A01
KSNH 241735Z AUTO 18008KT 10SM SCT016 BKN022 BKN027 26/24 A3002 RMK A01
KSNH 241715Z AUTO 21007KT 10SM BKN016 BKN020 BKN026 26/23 A3002 RMK A01
KSNH 241655Z AUTO 18007KT 10SM BKN016 BKN027 BKN040 26/23 A3003 RMK A01
KSNH 241635Z AUTO 17005KT 10SM BKN017 BKN040 OVC080 26/24 A3002 RMK A01